Time;durP1;ratioP1;P1;durP2;ratioP2;P2;SDS_P1;SDS_P2;PMS_P1;PMS_P2;Temp;Humidity;BMP_temperature;BMP_pressure;BME280_temperature;BME280_humidity;BME280_pressure;Samples;Min_cycle;Max_cycle;Signal;HPM_P1;HPM_P2
2022/08/11 00:02:01;;;;;;;5.20;4.80;;;;;;;;;;5068110;28;24430;-47
2022/08/11 00:04:33;;;;;;;5.22;4.82;;;;;;;;;;5070215;28;24442;-47
2022/08/11 00:07:01;;;;;;;5.00;4.50;;;;;;;;;;5069516;28;24900;-45
2022/08/11 00:09:31;;;;;;;5.20;4.80;;;;;;;;;;5067506;28;24469;-46
2022/08/11 00:11:57;;;;;;;4.90;4.50;;;;;;;;;;5069860;28;24811;-48
2022/08/11 00:14:23;;;;;;;5.30;4.90;;;;;;;;;;5065059;28;24572;-46
2022/08/11 00:16:52;;;;;;;5.20;4.80;;;;;;;;;;5070787;28;24533;-46
2022/08/11 00:19:23;;;;;;;5.30;4.82;;;;;;;;;;5068696;28;24422;-46
2022/08/11 00:21:48;;;;;;;5.00;4.60;;;;;;;;;;5068925;28;24414;-47
2022/08/11 00:24:14;;;;;;;5.22;4.90;;;;;;;;;;5068189;28;24622;-47
2022/08/11 00:26:39;;;;;;;5.63;5.22;;;;;;;;;;5071221;28;24462;-47
2022/08/11 00:29:08;;;;;;;4.90;4.60;;;;;;;;;;5068028;28;24533;-46
2022/08/11 00:31:34;;;;;;;5.45;4.95;;;;;;;;;;5067490;28;24785;-47
2022/08/11 00:34:00;;;;;;;4.63;4.32;;;;;;;;;;5067816;28;24464;-47
2022/08/11 00:36:27;;;;;;;5.53;5.05;;;;;;;;;;5070875;28;24438;-47
2022/08/11 00:38:54;;;;;;;5.28;4.78;;;;;;;;;;5070713;28;25700;-47
2022/08/11 00:41:19;;;;;;;5.40;5.05;;;;;;;;;;5066819;28;24840;-47
2022/08/11 00:43:50;;;;;;;5.50;5.10;;;;;;;;;;5065007;28;24890;-47
2022/08/11 00:46:15;;;;;;;5.22;4.82;;;;;;;;;;5067253;28;24476;-47
2022/08/11 00:48:52;;;;;;;5.40;4.90;;;;;;;;;;5066395;28;24442;-46
2022/08/11 00:51:20;;;;;;;5.40;4.90;;;;;;;;;;5067714;28;24431;-47
2022/08/11 00:54:01;;;;;;;4.87;4.57;;;;;;;;;;5067303;28;24529;-47
2022/08/11 00:56:44;;;;;;;5.53;5.03;;;;;;;;;;5066174;28;24916;-45
2022/08/11 00:59:09;;;;;;;5.85;5.35;;;;;;;;;;5069627;28;25085;-46
2022/08/11 01:01:37;;;;;;;5.20;4.80;;;;;;;;;;5068347;28;24793;-46
2022/08/11 01:04:16;;;;;;;5.07;4.77;;;;;;;;;;5069266;28;25803;-46
2022/08/11 01:07:00;;;;;;;5.50;5.10;;;;;;;;;;5071249;28;25010;-46
2022/08/11 01:09:51;;;;;;;5.90;5.50;;;;;;;;;;5067120;28;24437;-46
2022/08/11 01:12:41;;;;;;;5.20;4.70;;;;;;;;;;5066895;28;24526;-46
2022/08/11 01:15:22;;;;;;;5.50;5.00;;;;;;;;;;5063955;28;24441;-44
2022/08/11 01:17:47;;;;;;;5.53;5.13;;;;;;;;;;5073503;28;24517;-45
2022/08/11 01:20:31;;;;;;;5.33;4.93;;;;;;;;;;5071543;28;24507;-45
2022/08/11 01:23:06;;;;;;;5.80;5.40;;;;;;;;;;5065338;28;24972;-45
2022/08/11 01:25:49;;;;;;;6.00;5.50;;;;;;;;;;5066606;28;24864;-45
2022/08/11 01:28:33;;;;;;;5.30;4.90;;;;;;;;;;5072573;28;24445;-46
2022/08/11 01:31:13;;;;;;;5.70;5.30;;;;;;;;;;5065049;28;24450;-45
2022/08/11 01:34:01;;;;;;;5.97;5.47;;;;;;;;;;5067075;28;24438;-46
2022/08/11 01:36:41;;;;;;;5.60;5.18;;;;;;;;;;5072558;28;24493;-45
2022/08/11 01:39:12;;;;;;;5.43;5.03;;;;;;;;;;5069200;28;24544;-45
2022/08/11 01:44:52;;;;;;;5.80;5.33;;;;;;;;;;5072490;28;24418;-46
2022/08/11 01:50:15;;;;;;;5.65;5.15;;;;;;;;;;5066161;28;24421;-45
2022/08/11 01:53:00;;;;;;;5.90;5.50;;;;;;;;;;5062869;28;24544;-47
2022/08/11 01:55:33;;;;;;;6.30;5.70;;;;;;;;;;5067450;28;24438;-46
2022/08/11 01:58:12;;;;;;;5.88;5.47;;;;;;;;;;5064755;28;24580;-46
2022/08/11 02:00:56;;;;;;;5.50;5.10;;;;;;;;;;5064987;28;26188;-47
2022/08/11 02:03:25;;;;;;;5.90;5.50;;;;;;;;;;5067200;28;24847;-47
2022/08/11 02:05:51;;;;;;;6.00;5.50;;;;;;;;;;5067665;28;24518;-47
2022/08/11 02:08:22;;;;;;;6.20;5.70;;;;;;;;;;5065308;28;24555;-47
2022/08/11 02:13:40;;;;;;;6.13;5.72;;;;;;;;;;5065837;28;25113;-46
2022/08/11 02:16:17;;;;;;;6.28;5.78;;;;;;;;;;5064840;28;24430;-47
2022/08/11 02:24:29;;;;;;;6.10;5.50;;;;;;;;;;5062407;28;24468;-46
2022/08/11 02:27:12;;;;;;;5.63;5.20;;;;;;;;;;5064889;28;24431;-46
2022/08/11 02:29:45;;;;;;;5.50;5.10;;;;;;;;;;5070053;28;24453;-46
2022/08/11 02:35:25;;;;;;;6.30;5.85;;;;;;;;;;5070702;28;24495;-46
2022/08/11 02:38:04;;;;;;;6.43;5.93;;;;;;;;;;5072241;28;24478;-46
2022/08/11 02:40:41;;;;;;;6.50;6.00;;;;;;;;;;5063811;28;24426;-46
2022/08/11 02:43:10;;;;;;;6.80;6.20;;;;;;;;;;5068688;28;25033;-46
2022/08/11 02:45:53;;;;;;;6.30;5.80;;;;;;;;;;5064604;28;24422;-45
2022/08/11 02:51:26;;;;;;;6.60;6.10;;;;;;;;;;5066439;28;24433;-46
2022/08/11 02:54:06;;;;;;;6.72;6.22;;;;;;;;;;5067220;28;24430;-46
2022/08/11 02:56:34;;;;;;;6.97;6.40;;;;;;;;;;5065699;28;26285;-47
2022/08/11 03:02:04;;;;;;;6.35;5.93;;;;;;;;;;5068251;28;24832;-46
2022/08/11 03:04:36;;;;;;;6.53;6.03;;;;;;;;;;5067603;28;24982;-47
2022/08/11 03:07:07;;;;;;;6.40;5.90;;;;;;;;;;5070049;28;24512;-46
2022/08/11 03:09:45;;;;;;;6.30;5.90;;;;;;;;;;5065700;28;24434;-46
2022/08/11 03:18:15;;;;;;;7.53;7.03;;;;;;;;;;5067781;28;25063;-47
2022/08/11 03:20:47;;;;;;;6.63;6.20;;;;;;;;;;5071170;28;24421;-46
2022/08/11 03:23:29;;;;;;;6.72;6.22;;;;;;;;;;5067991;28;24578;-46
2022/08/11 03:26:13;;;;;;;6.85;6.25;;;;;;;;;;5066252;28;24464;-45
2022/08/11 03:28:44;;;;;;;6.70;6.20;;;;;;;;;;5068542;28;24435;-46
2022/08/11 03:31:18;;;;;;;7.00;6.40;;;;;;;;;;5068812;28;24557;-46
2022/08/11 03:34:04;;;;;;;7.30;6.70;;;;;;;;;;5069952;28;24449;-47
2022/08/11 03:36:45;;;;;;;7.10;6.50;;;;;;;;;;5072530;28;24445;-46
2022/08/11 03:39:15;;;;;;;7.00;6.50;;;;;;;;;;5070739;28;25034;-45
2022/08/11 03:41:49;;;;;;;7.13;6.53;;;;;;;;;;5067900;28;24564;-46
2022/08/11 03:44:19;;;;;;;6.80;6.30;;;;;;;;;;5073783;28;24876;-46
2022/08/11 03:46:55;;;;;;;7.65;6.65;;;;;;;;;;5073288;28;25026;-48
2022/08/11 03:49:49;;;;;;;6.97;6.37;;;;;;;;;;5078519;28;24426;-46
2022/08/11 03:52:26;;;;;;;7.10;6.50;;;;;;;;;;5051500;28;24973;-45
2022/08/11 03:55:10;;;;;;;6.90;6.40;;;;;;;;;;5073055;28;24979;-46
2022/08/11 03:57:35;;;;;;;6.70;6.20;;;;;;;;;;5069197;28;24443;-46
2022/08/11 04:00:14;;;;;;;6.53;6.03;;;;;;;;;;5075781;28;24429;-46
2022/08/11 04:02:58;;;;;;;6.78;6.28;;;;;;;;;;5066667;28;24419;-46
2022/08/11 04:05:42;;;;;;;6.55;6.05;;;;;;;;;;5070355;28;24419;-46
2022/08/11 04:08:27;;;;;;;7.20;6.60;;;;;;;;;;5065776;28;24438;-47
2022/08/11 04:11:07;;;;;;;7.20;6.60;;;;;;;;;;5067847;28;24433;-46
2022/08/11 04:13:51;;;;;;;7.15;6.65;;;;;;;;;;5071080;28;24415;-46
2022/08/11 04:16:39;;;;;;;6.60;6.00;;;;;;;;;;5065349;28;24442;-46
2022/08/11 04:19:11;;;;;;;7.50;6.90;;;;;;;;;;5071532;28;25075;-47
2022/08/11 04:21:49;;;;;;;7.57;6.87;;;;;;;;;;5068730;28;24423;-45
2022/08/11 04:24:26;;;;;;;7.40;6.90;;;;;;;;;;5066356;28;24543;-45
2022/08/11 04:27:18;;;;;;;7.07;6.50;;;;;;;;;;5070083;28;24614;-46
2022/08/11 04:29:55;;;;;;;6.55;6.10;;;;;;;;;;5066884;28;24482;-45
2022/08/11 04:32:35;;;;;;;6.68;6.15;;;;;;;;;;5069282;28;24985;-47
2022/08/11 04:35:16;;;;;;;6.70;6.10;;;;;;;;;;5076159;28;24518;-47
2022/08/11 04:37:53;;;;;;;6.70;6.10;;;;;;;;;;5067112;28;24465;-45
2022/08/11 04:40:41;;;;;;;7.22;6.18;;;;;;;;;;5068886;28;24510;-45
2022/08/11 04:43:26;;;;;;;7.30;6.20;;;;;;;;;;5068299;28;24415;-46
2022/08/11 04:45:51;;;;;;;7.55;6.85;;;;;;;;;;5065838;28;24430;-44
2022/08/11 05:02:54;;;;;;;6.40;5.80;;;;;;;;;;5061793;28;25006;-46
2022/08/11 05:05:37;;;;;;;7.50;6.43;;;;;;;;;;5064264;28;24451;-46
2022/08/11 05:08:21;;;;;;;6.35;5.63;;;;;;;;;;5065420;28;24507;-46
2022/08/11 05:11:02;;;;;;;7.00;6.40;;;;;;;;;;5066416;28;24534;-47
2022/08/11 05:36:35;;;;;;;6.33;5.80;;;;;;;;;;5073886;28;24440;-46
2022/08/11 05:58:32;;;;;;;5.97;5.38;;;;;;;;;;5075404;28;24449;-46
2022/08/11 06:00:58;;;;;;;5.63;5.13;;;;;;;;;;5069853;28;24418;-46
2022/08/11 06:03:27;;;;;;;5.10;4.60;;;;;;;;;;5068358;28;24833;-46
2022/08/11 06:05:52;;;;;;;5.70;5.30;;;;;;;;;;5071292;28;24777;-48
2022/08/11 06:08:26;;;;;;;4.80;4.50;;;;;;;;;;5081141;28;24425;-47
2022/08/11 06:10:51;;;;;;;4.80;4.50;;;;;;;;;;5080954;28;24491;-46
2022/08/11 06:13:17;;;;;;;5.30;4.90;;;;;;;;;;5069167;28;24422;-46
2022/08/11 06:15:46;;;;;;;4.70;4.40;;;;;;;;;;5074876;28;24516;-46
2022/08/11 06:18:12;;;;;;;4.90;4.50;;;;;;;;;;5075581;28;24603;-46
2022/08/11 06:20:51;;;;;;;5.70;5.20;;;;;;;;;;5074196;28;24425;-46
2022/08/11 06:23:18;;;;;;;4.90;4.50;;;;;;;;;;5063370;28;24415;-46
2022/08/11 06:25:43;;;;;;;5.00;4.70;;;;;;;;;;5064806;28;24426;-46
2022/08/11 06:28:09;;;;;;;5.60;5.00;;;;;;;;;;5062851;28;24459;-46
2022/08/11 06:30:39;;;;;;;5.23;4.73;;;;;;;;;;5066081;28;24492;-46
2022/08/11 06:33:07;;;;;;;5.22;4.72;;;;;;;;;;5069716;28;24526;-47
2022/08/11 06:35:44;;;;;;;5.70;5.20;;;;;;;;;;5063507;28;24435;-47
2022/08/11 06:38:14;;;;;;;5.70;5.20;;;;;;;;;;5065147;28;24508;-47
2022/08/11 06:41:29;;;;;;;5.30;4.90;;;;;;;;;;5069083;28;24414;-47
2022/08/11 06:43:44;;;;;;;5.43;4.90;;;;;;;;;;5073158;28;24408;-46
2022/08/11 06:46:10;;;;;;;5.60;5.20;;;;;;;;;;5065031;28;24415;-46
2022/08/11 06:48:38;;;;;;;4.90;4.60;;;;;;;;;;5068468;28;24442;-46
2022/08/11 06:51:11;;;;;;;5.90;5.50;;;;;;;;;;5070137;28;24496;-46
2022/08/11 06:53:56;;;;;;;6.53;5.82;;;;;;;;;;5070459;28;24549;-47
2022/08/11 07:01:57;;;;;;;5.60;5.20;;;;;;;;;;5068439;28;27201;-47
2022/08/11 07:04:38;;;;;;;5.50;5.10;;;;;;;;;;5074408;28;25011;-47
2022/08/11 07:15:43;;;;;;;4.50;4.20;;;;;;;;;;5083333;28;25017;-46
2022/08/11 07:29:42;;;;;;;5.13;4.72;;;;;;;;;;5065643;28;24458;-47
2022/08/11 07:32:35;;;;;;;5.30;4.90;;;;;;;;;;5085890;28;24479;-47
2022/08/11 07:35:08;;;;;;;5.05;4.53;;;;;;;;;;5061213;28;24738;-46
2022/08/11 07:37:33;;;;;;;5.13;4.68;;;;;;;;;;5081427;28;24980;-48
2022/08/11 07:39:59;;;;;;;4.80;4.40;;;;;;;;;;5079928;28;24418;-47
2022/08/11 07:42:27;;;;;;;4.90;4.30;;;;;;;;;;5081478;28;24398;-47
2022/08/11 07:53:06;;;;;;;4.40;4.10;;;;;;;;;;5076906;28;25200;-46
2022/08/11 07:55:33;;;;;;;4.60;4.20;;;;;;;;;;5075726;28;24411;-46
2022/08/11 08:19:54;;;;;;;3.75;3.55;;;;;;;;;;5077751;28;24414;-46
2022/08/11 08:22:20;;;;;;;3.90;3.60;;;;;;;;;;5071687;28;24785;-47
2022/08/11 08:24:46;;;;;;;4.00;3.70;;;;;;;;;;5069499;28;24415;-46
2022/08/11 08:27:12;;;;;;;5.05;3.80;;;;;;;;;;5075897;28;24458;-45
2022/08/11 08:32:22;;;;;;;7.80;4.10;;;;;;;;;;5084539;28;24782;-45
2022/08/11 08:34:51;;;;;;;3.80;3.50;;;;;;;;;;5072088;28;24982;-46
2022/08/11 08:37:17;;;;;;;3.50;3.20;;;;;;;;;;5072872;28;24453;-45
2022/08/11 08:39:44;;;;;;;4.30;3.78;;;;;;;;;;5071299;28;24418;-45
2022/08/11 08:42:11;;;;;;;4.00;3.70;;;;;;;;;;5073311;28;24426;-46
2022/08/11 08:44:39;;;;;;;4.00;3.70;;;;;;;;;;5073822;28;24526;-46
2022/08/11 08:47:06;;;;;;;5.25;3.40;;;;;;;;;;5020232;28;1699957;-45
2022/08/11 08:49:34;;;;;;;4.75;3.80;;;;;;;;;;5069549;28;24426;-45
2022/08/11 08:52:01;;;;;;;3.40;3.10;;;;;;;;;;5075279;28;24410;-45
2022/08/11 08:54:32;;;;;;;3.83;3.53;;;;;;;;;;5085906;28;24434;-45
2022/08/11 08:57:03;;;;;;;5.18;3.60;;;;;;;;;;5084570;28;25139;-45
2022/08/11 08:59:29;;;;;;;4.80;4.10;;;;;;;;;;5089010;28;24420;-46
2022/08/11 09:01:56;;;;;;;3.65;3.35;;;;;;;;;;5088468;28;24406;-46
2022/08/11 09:04:22;;;;;;;5.60;4.20;;;;;;;;;;5087966;28;25085;-45
2022/08/11 09:06:47;;;;;;;5.60;3.63;;;;;;;;;;5088749;28;24531;-45
2022/08/11 09:09:13;;;;;;;5.03;3.72;;;;;;;;;;5087473;28;24401;-46
2022/08/11 09:11:54;;;;;;;4.27;3.87;;;;;;;;;;5087576;28;24478;-45
2022/08/11 09:14:23;;;;;;;7.10;3.70;;;;;;;;;;5087940;28;24406;-46
2022/08/11 09:16:49;;;;;;;4.30;3.75;;;;;;;;;;5087477;28;24899;-46
2022/08/11 09:19:16;;;;;;;4.10;3.47;;;;;;;;;;5088228;28;24804;-46
2022/08/11 09:21:42;;;;;;;3.70;3.30;;;;;;;;;;5086200;28;24495;-46
2022/08/11 09:27:01;;;;;;;3.83;3.53;;;;;;;;;;5071188;28;24525;-46
2022/08/11 09:29:27;;;;;;;3.80;3.10;;;;;;;;;;5080109;28;24628;-47
2022/08/11 09:31:53;;;;;;;4.13;3.20;;;;;;;;;;5082210;28;24568;-46
2022/08/11 09:34:18;;;;;;;3.70;3.10;;;;;;;;;;5066868;28;24451;-46
2022/08/11 09:42:13;;;;;;;3.88;3.58;;;;;;;;;;5080167;28;24468;-46
2022/08/11 09:44:46;;;;;;;3.50;3.20;;;;;;;;;;5075317;28;24418;-46
2022/08/11 09:47:14;;;;;;;3.00;2.80;;;;;;;;;;5087022;28;24457;-47
2022/08/11 09:49:40;;;;;;;4.37;3.40;;;;;;;;;;5085560;28;24425;-46
2022/08/11 09:52:08;;;;;;;3.63;3.40;;;;;;;;;;5085405;28;24418;-45
2022/08/11 09:54:33;;;;;;;4.30;3.55;;;;;;;;;;5070674;28;24495;-45
2022/08/11 09:59:42;;;;;;;3.60;3.30;;;;;;;;;;5086554;28;24483;-46
2022/08/11 10:02:08;;;;;;;3.60;3.30;;;;;;;;;;5072215;28;24498;-46
2022/08/11 10:04:39;;;;;;;4.87;3.40;;;;;;;;;;5071175;28;24469;-47
2022/08/11 10:07:07;;;;;;;10.32;4.75;;;;;;;;;;5075697;28;24427;-46
2022/08/11 10:09:40;;;;;;;3.90;3.50;;;;;;;;;;5065678;28;24426;-46
2022/08/11 10:12:08;;;;;;;4.88;3.20;;;;;;;;;;5069690;28;24434;-46
2022/08/11 10:17:20;;;;;;;4.40;3.10;;;;;;;;;;5086536;28;24437;-46
2022/08/11 10:19:48;;;;;;;3.40;3.10;;;;;;;;;;5086108;28;24916;-45
2022/08/11 10:27:42;;;;;;;3.80;3.20;;;;;;;;;;5066688;28;24390;-45
2022/08/11 10:35:36;;;;;;;3.20;2.90;;;;;;;;;;5066234;28;24479;-45
2022/08/11 10:38:02;;;;;;;2.90;2.70;;;;;;;;;;5075453;28;24426;-46
2022/08/11 10:40:27;;;;;;;4.40;2.90;;;;;;;;;;5077846;28;24422;-46
2022/08/11 10:43:09;;;;;;;6.13;3.00;;;;;;;;;;5082851;28;24418;-46
2022/08/11 10:48:23;;;;;;;2.72;2.50;;;;;;;;;;5070055;28;24457;-46
2022/08/11 10:59:03;;;;;;;2.35;2.15;;;;;;;;;;5077367;28;24430;-47
2022/08/11 11:01:32;;;;;;;2.50;2.30;;;;;;;;;;5071309;28;24421;-47
2022/08/11 11:04:03;;;;;;;2.80;2.55;;;;;;;;;;5078785;28;24421;-46
2022/08/11 11:06:31;;;;;;;3.65;2.70;;;;;;;;;;5072955;28;24415;-49
2022/08/11 11:09:07;;;;;;;3.00;2.70;;;;;;;;;;5066820;28;24423;-47
2022/08/11 11:19:40;;;;;;;2.40;2.20;;;;;;;;;;5085898;28;24983;-46
2022/08/11 11:24:50;;;;;;;2.30;2.10;;;;;;;;;;5086100;28;24494;-46
2022/08/11 11:27:30;;;;;;;2.43;2.20;;;;;;;;;;5083830;28;24493;-47
2022/08/11 11:30:09;;;;;;;4.93;2.40;;;;;;;;;;5071166;28;24458;-46
2022/08/11 11:32:34;;;;;;;2.20;2.10;;;;;;;;;;5076269;28;24485;-46
2022/08/11 11:35:17;;;;;;;3.20;2.30;;;;;;;;;;5070688;28;24461;-47
2022/08/11 11:37:44;;;;;;;2.30;2.10;;;;;;;;;;5081946;28;24461;-45
2022/08/11 11:40:11;;;;;;;2.72;2.10;;;;;;;;;;5071072;28;24774;-45
2022/08/11 11:42:40;;;;;;;2.20;2.00;;;;;;;;;;5085486;28;24972;-46
2022/08/11 11:45:07;;;;;;;3.78;2.40;;;;;;;;;;5073749;28;25072;-46
2022/08/11 11:47:32;;;;;;;1.90;1.80;;;;;;;;;;5086482;28;24450;-46
2022/08/11 11:49:57;;;;;;;2.40;1.80;;;;;;;;;;5087744;28;24983;-46
2022/08/11 11:52:23;;;;;;;2.30;1.80;;;;;;;;;;5075744;28;24450;-46
2022/08/11 11:54:50;;;;;;;2.00;1.80;;;;;;;;;;5088985;28;24956;-45
2022/08/11 12:02:44;;;;;;;3.47;1.95;;;;;;;;;;5069722;28;24421;-45
2022/08/11 12:05:09;;;;;;;2.00;1.80;;;;;;;;;;5079829;28;24450;-45
2022/08/11 12:10:19;;;;;;;2.70;2.10;;;;;;;;;;5074365;28;24438;-46
2022/08/11 12:15:49;;;;;;;3.17;2.08;;;;;;;;;;5066260;28;24394;-46
2022/08/11 12:18:15;;;;;;;2.00;1.90;;;;;;;;;;5064560;28;24494;-47
2022/08/11 12:20:41;;;;;;;2.40;2.17;;;;;;;;;;5077170;28;24425;-46
2022/08/11 12:28:34;;;;;;;3.70;1.60;;;;;;;;;;5068415;28;24472;-46
2022/08/11 12:30:59;;;;;;;2.10;1.70;;;;;;;;;;5068574;28;24772;-46
2022/08/11 12:33:25;;;;;;;3.43;1.90;;;;;;;;;;5067751;28;24391;-45
2022/08/11 12:35:57;;;;;;;1.80;1.70;;;;;;;;;;5078713;28;24514;-46
2022/08/11 12:38:23;;;;;;;2.17;1.90;;;;;;;;;;5077772;28;24592;-45
2022/08/11 12:46:36;;;;;;;2.35;1.80;;;;;;;;;;5082827;28;24890;-47
2022/08/11 12:51:57;;;;;;;1.90;1.80;;;;;;;;;;5070690;28;25060;-46
2022/08/11 12:54:28;;;;;;;2.55;2.00;;;;;;;;;;5071167;28;25211;-46
2022/08/11 13:05:12;;;;;;;2.20;2.00;;;;;;;;;;5075270;28;24464;-45
2022/08/11 13:07:39;;;;;;;3.30;2.00;;;;;;;;;;5063757;28;24418;-46
2022/08/11 13:10:05;;;;;;;2.78;2.20;;;;;;;;;;5073280;28;24525;-45
2022/08/11 13:12:47;;;;;;;3.10;2.10;;;;;;;;;;5077169;28;24506;-47
2022/08/11 13:15:19;;;;;;;2.03;1.92;;;;;;;;;;5077351;28;24427;-46
2022/08/11 13:17:47;;;;;;;2.17;2.03;;;;;;;;;;5066628;28;25067;-46
2022/08/11 13:20:13;;;;;;;3.95;2.05;;;;;;;;;;5076494;28;24429;-46
2022/08/11 13:22:39;;;;;;;2.30;2.10;;;;;;;;;;5064451;28;24627;-45
2022/08/11 13:25:06;;;;;;;2.50;2.30;;;;;;;;;;5073705;28;24418;-46
2022/08/11 13:27:31;;;;;;;4.10;2.50;;;;;;;;;;5082886;28;24525;-45
2022/08/11 13:32:40;;;;;;;2.50;2.30;;;;;;;;;;5076194;28;24486;-45
2022/08/11 13:35:07;;;;;;;2.30;2.20;;;;;;;;;;5071070;28;24475;-45
2022/08/11 13:37:34;;;;;;;2.60;2.38;;;;;;;;;;5070722;28;24453;-45
2022/08/11 13:40:00;;;;;;;3.03;2.30;;;;;;;;;;5075194;28;24426;-45
2022/08/11 13:42:26;;;;;;;2.40;2.17;;;;;;;;;;5065032;28;24501;-45
2022/08/11 13:44:51;;;;;;;2.50;2.30;;;;;;;;;;5075758;28;24418;-46
2022/08/11 13:47:20;;;;;;;2.93;2.10;;;;;;;;;;5064609;28;24451;-45
2022/08/11 13:49:46;;;;;;;3.50;2.30;;;;;;;;;;5065275;28;24521;-46
2022/08/11 13:52:13;;;;;;;3.45;2.35;;;;;;;;;;5072920;28;25083;-46
2022/08/11 13:54:38;;;;;;;2.37;2.20;;;;;;;;;;5063389;28;24429;-46
2022/08/11 13:57:05;;;;;;;2.43;2.20;;;;;;;;;;5063328;28;24483;-46
2022/08/11 13:59:31;;;;;;;2.30;2.10;;;;;;;;;;5064718;28;24438;-46
2022/08/11 14:01:59;;;;;;;3.80;2.50;;;;;;;;;;5074437;28;24418;-45
2022/08/11 14:04:33;;;;;;;2.65;2.28;;;;;;;;;;5076893;28;24420;-45
2022/08/11 14:06:59;;;;;;;3.40;2.40;;;;;;;;;;5065110;28;24975;-45
2022/08/11 14:09:26;;;;;;;2.78;2.50;;;;;;;;;;5071924;28;24461;-46
2022/08/11 14:14:38;;;;;;;2.80;2.40;;;;;;;;;;5064515;28;24430;-45
2022/08/11 14:17:06;;;;;;;2.60;2.40;;;;;;;;;;5071672;28;24434;-46
2022/08/11 14:19:31;;;;;;;3.67;2.90;;;;;;;;;;5074231;28;24496;-46
2022/08/11 14:22:07;;;;;;;2.70;2.50;;;;;;;;;;5075311;28;24971;-45
2022/08/11 14:24:34;;;;;;;2.70;2.50;;;;;;;;;;5085070;28;24426;-45
2022/08/11 14:26:59;;;;;;;2.83;2.63;;;;;;;;;;5086723;28;24409;-45
2022/08/11 14:29:26;;;;;;;3.20;2.60;;;;;;;;;;5086081;28;24409;-45
2022/08/11 14:31:56;;;;;;;3.20;2.90;;;;;;;;;;5085846;28;24418;-45
2022/08/11 14:34:23;;;;;;;2.70;2.50;;;;;;;;;;5085009;28;24428;-45
2022/08/11 14:36:51;;;;;;;3.10;2.80;;;;;;;;;;5087417;28;24382;-45
2022/08/11 14:39:17;;;;;;;2.80;2.60;;;;;;;;;;5085890;28;25037;-46
2022/08/11 14:47:14;;;;;;;3.90;2.60;;;;;;;;;;5087192;28;24421;-45
2022/08/11 14:49:39;;;;;;;2.60;2.40;;;;;;;;;;5086989;28;24471;-47
2022/08/11 14:52:13;;;;;;;2.40;2.20;;;;;;;;;;5086660;28;24816;-46
2022/08/11 14:57:27;;;;;;;2.60;2.40;;;;;;;;;;5083002;28;24483;-46
2022/08/11 14:59:53;;;;;;;4.40;2.53;;;;;;;;;;5077601;28;24414;-46
2022/08/11 15:05:03;;;;;;;2.67;2.50;;;;;;;;;;5066325;28;24504;-46
2022/08/11 15:07:29;;;;;;;3.30;2.40;;;;;;;;;;5066293;28;24371;-47
2022/08/11 15:09:56;;;;;;;2.70;2.50;;;;;;;;;;5076772;28;24437;-46
2022/08/11 15:12:21;;;;;;;2.60;2.40;;;;;;;;;;5073025;28;24426;-46
2022/08/11 15:17:33;;;;;;;3.03;2.70;;;;;;;;;;5090705;28;24499;-46
2022/08/11 15:25:28;;;;;;;4.10;2.60;;;;;;;;;;5090426;28;24398;-46
2022/08/11 15:39:18;;;;;;;3.10;2.50;;;;;;;;;;5075751;28;24449;-45
2022/08/11 15:47:17;;;;;;;2.85;2.65;;;;;;;;;;5069457;28;24425;-47
2022/08/11 15:49:43;;;;;;;4.60;3.00;;;;;;;;;;5076313;28;24940;-47
2022/08/11 15:52:09;;;;;;;4.90;2.70;;;;;;;;;;5069181;28;24774;-46
2022/08/11 15:54:38;;;;;;;2.60;2.40;;;;;;;;;;5078364;28;24433;-48
2022/08/11 15:57:04;;;;;;;2.92;2.55;;;;;;;;;;5075911;28;24422;-46
2022/08/11 16:05:10;;;;;;;2.60;2.40;;;;;;;;;;5073209;28;24509;-46
2022/08/11 16:07:36;;;;;;;2.40;2.20;;;;;;;;;;5087209;28;24509;-46
2022/08/11 16:10:06;;;;;;;3.53;2.30;;;;;;;;;;5074789;28;24502;-46
2022/08/11 16:12:34;;;;;;;3.63;2.40;;;;;;;;;;5069353;28;24750;-46
2022/08/11 16:17:58;;;;;;;3.00;2.50;;;;;;;;;;5076973;28;24514;-47
2022/08/11 16:20:25;;;;;;;3.17;2.58;;;;;;;;;;5075313;28;24460;-47
2022/08/11 16:22:53;;;;;;;4.05;2.80;;;;;;;;;;5089469;28;24393;-45
2022/08/11 16:25:22;;;;;;;2.80;2.60;;;;;;;;;;5075698;28;24395;-46
2022/08/11 16:27:50;;;;;;;2.80;2.60;;;;;;;;;;5072400;28;24480;-46
2022/08/11 16:30:15;;;;;;;2.90;2.70;;;;;;;;;;5085897;28;24460;-47
2022/08/11 16:32:43;;;;;;;2.80;2.60;;;;;;;;;;5073025;28;24468;-46
2022/08/11 16:40:38;;;;;;;2.78;2.58;;;;;;;;;;5078124;28;24413;-45
2022/08/11 16:48:35;;;;;;;2.42;2.22;;;;;;;;;;5069775;28;24477;-47
2022/08/11 16:51:00;;;;;;;2.13;1.92;;;;;;;;;;5071474;28;24490;-47
2022/08/11 16:53:27;;;;;;;2.37;2.10;;;;;;;;;;5076723;28;24430;-46
2022/08/11 16:55:52;;;;;;;2.10;2.00;;;;;;;;;;5068867;28;24511;-46
2022/08/11 17:01:03;;;;;;;2.40;2.20;;;;;;;;;;5077018;28;25098;-46
2022/08/11 17:14:42;;;;;;;2.63;2.40;;;;;;;;;;5085407;28;25381;-45
2022/08/11 17:17:19;;;;;;;2.00;1.90;;;;;;;;;;5080115;28;24430;-46
2022/08/11 17:19:48;;;;;;;3.37;2.10;;;;;;;;;;5074654;28;24424;-46
2022/08/11 17:24:58;;;;;;;2.40;2.20;;;;;;;;;;5065570;28;24477;-46
2022/08/11 17:27:23;;;;;;;2.73;2.43;;;;;;;;;;5066343;28;24798;-46
2022/08/11 17:29:50;;;;;;;2.90;2.37;;;;;;;;;;5074480;28;24460;-44
2022/08/11 17:37:46;;;;;;;2.77;2.57;;;;;;;;;;5065107;28;24800;-46
2022/08/11 17:40:12;;;;;;;3.40;2.20;;;;;;;;;;5082381;28;24831;-46
2022/08/11 17:48:24;;;;;;;2.50;2.30;;;;;;;;;;5077816;28;24445;-46
2022/08/11 17:50:51;;;;;;;2.30;2.10;;;;;;;;;;5070213;28;24479;-46
2022/08/11 18:01:44;;;;;;;2.13;2.03;;;;;;;;;;5081572;28;24410;-46
2022/08/11 18:04:10;;;;;;;3.30;2.10;;;;;;;;;;5065342;28;25190;-47
2022/08/11 18:06:36;;;;;;;6.20;2.20;;;;;;;;;;5084691;28;24664;-46
